Airfield :
LOGIN :

Register | Disclaimer

   EN    FR    IT 

 










Legend :    VFR   Marginal VFR   IFR   Intensive IFR   Very Intensive IFR
Visi :
Ceiling :
>= 8 km
>= 3000ft
5 to 8 km
1000 to 3000 ft
1500m to 5 km
500 to 1000 ft
800 to 1500m
200 to 500 ft
< 800m
< 200 ft
Symbols :   Thunderstorms  Fog  Heavy snow  Heavy precipitations  Wind > 20 kt
SIGMETs :     Misc.  Thunderstorms  Icing  Turbulence  Mountain Waves  Volcanic Ashes






- Airport Elevation : 778 ft
- IATA code : BRQ


LKTB - Brno-Turany

CURRENT METAR :
  • 211700Z 07009KT CAVOK 22/16 Q1007 NOSIG

EXPIRED METARs :
  • 211630Z 07007KT 9999 SCT049 22/16 Q1007 NOSIG
  • 211600Z 09010KT 9999 SCT047 22/16 Q1007 NOSIG
  • 211530Z 08011KT 9999 SCT047 22/17 Q1008 NOSIG
  • 211500Z 07010KT 9999 FEW042 22/17 Q1008 NOSIG
  • 211430Z 07010KT 9999 FEW034 22/16 Q1008 NOSIG
  • 211400Z 08010KT 9999 VCSH SCT038 21/16 Q1009 NOSIG
  • 211330Z 08010KT 9999 FEW032 21/16 Q1009 NOSIG
  • 211300Z 08011KT 9999 FEW032 20/15 Q1010 NOSIG
  • 211230Z 09010KT 9999 FEW032 20/16 Q1010 NOSIG

TAF TAF LKTB
Valid from the 21 at 12:00 until the 22 at 12:00 UTC


211100Z 2112/2212 11012KT 9999 BKN020
TEMPO 2112/2121 7000 SHRA SCT017TCU
PROB30
TEMPO 2112/2121 4000 TSRA SCT015CB
TEMPO 2123/2208 8000 -RA BKN010
BECMG 2206/2208 26006KT



MET'MAP, your aeronautical weather chart ! - Copyright ORBIFLY December 2007 - Disclaimer

ORBIFLY MET'MAP TEAM :

Programming & Development : Alexandra Zaïnal
Original concept : Baudouin d'Aumeries
Technical & hardware support : Manuel Goepfert
Assistance : Marc-Olivier Méhu




SOURCES & CREDITS :

   NOAA